createdAt,value
2023-03-17T00:00:15.282Z,-0.59
2023-03-17T00:03:04.940Z,-0.53
2023-03-17T00:05:37.941Z,-0.56
2023-03-17T00:08:13.069Z,-0.57
2023-03-17T00:10:40.231Z,-0.66
2023-03-17T00:13:07.133Z,-0.65
2023-03-17T00:15:35.137Z,-0.61
2023-03-17T00:18:02.377Z,-0.66
2023-03-17T00:20:31.174Z,-0.60
2023-03-17T00:23:04.336Z,-0.59
2023-03-17T00:25:33.204Z,-0.64
2023-03-17T00:28:01.578Z,-0.71
2023-03-17T00:30:29.042Z,-0.80
2023-03-17T00:32:57.794Z,-0.82
2023-03-17T00:35:29.304Z,-0.86
2023-03-17T00:37:59.516Z,-0.90
2023-03-17T00:40:30.914Z,-0.95
2023-03-17T00:43:00.170Z,-1.03
2023-03-17T00:45:28.133Z,-1.04
2023-03-17T00:47:57.762Z,-1.15
2023-03-17T00:50:26.412Z,-1.02
2023-03-17T00:52:54.422Z,-1.11
2023-03-17T00:55:22.651Z,-1.14
2023-03-17T00:57:49.705Z,-1.16
2023-03-17T01:00:17.759Z,-1.25
2023-03-17T01:02:45.605Z,-1.32
2023-03-17T01:05:13.078Z,-1.35
2023-03-17T01:07:41.540Z,-1.41
2023-03-17T01:10:13.079Z,-1.47
2023-03-17T01:12:40.338Z,-1.40
2023-03-17T01:15:07.685Z,-1.36
2023-03-17T01:17:34.667Z,-1.35
2023-03-17T01:20:02.972Z,-1.37
2023-03-17T01:22:30.174Z,-1.25
2023-03-17T01:24:57.345Z,-1.23
2023-03-17T01:27:24.652Z,-1.22
2023-03-17T01:29:55.591Z,-1.19
2023-03-17T01:32:22.480Z,-1.07
2023-03-17T01:34:49.579Z,-1.01
2023-03-17T01:37:16.621Z,-0.98
2023-03-17T01:39:43.741Z,-0.97
2023-03-17T01:42:13.673Z,-1.02
2023-03-17T01:45:01.241Z,-1.07
2023-03-17T01:47:32.690Z,-1.16
2023-03-17T01:50:06.313Z,-1.16
2023-03-17T01:52:36.003Z,-1.23
2023-03-17T01:55:08.958Z,-1.14
2023-03-17T01:57:39.722Z,-1.12
2023-03-17T02:00:11.945Z,-1.07
2023-03-17T02:02:43.953Z,-1.02
2023-03-17T02:05:12.933Z,-1.00
2023-03-17T02:07:40.325Z,-0.97
2023-03-17T02:10:09.042Z,-1.00
2023-03-17T02:12:39.798Z,-1.00
2023-03-17T02:15:08.016Z,-1.06
2023-03-17T02:17:35.073Z,-1.02
2023-03-17T02:20:14.728Z,-0.92
2023-03-17T02:22:42.322Z,-0.94
2023-03-17T02:25:10.363Z,-0.87
2023-03-17T02:27:39.560Z,-0.77
2023-03-17T02:30:08.672Z,-0.75
2023-03-17T02:32:36.329Z,-0.75
2023-03-17T02:35:04.351Z,-0.73
2023-03-17T02:37:31.509Z,-0.71
2023-03-17T02:40:01.716Z,-0.73
2023-03-17T02:42:29.205Z,-0.63
2023-03-17T02:44:58.977Z,-0.64
2023-03-17T02:47:26.131Z,-0.63
2023-03-17T02:49:53.965Z,-0.52
2023-03-17T02:52:23.082Z,-0.49
2023-03-17T02:54:50.265Z,-0.47
2023-03-17T02:57:17.219Z,-0.46
2023-03-17T02:59:44.785Z,-0.47
2023-03-17T03:02:14.731Z,-0.44
2023-03-17T03:04:44.366Z,-0.49
2023-03-17T03:07:11.633Z,-0.51
2023-03-17T03:09:38.952Z,-0.57
2023-03-17T03:12:06.069Z,-0.61
2023-03-17T03:14:33.270Z,-0.67
2023-03-17T03:17:00.354Z,-0.70
2023-03-17T03:19:27.756Z,-0.63
2023-03-17T03:21:54.771Z,-0.63
2023-03-17T03:24:21.926Z,-0.57
2023-03-17T03:26:49.026Z,-0.55
2023-03-17T03:29:16.931Z,-0.49
2023-03-17T03:31:43.935Z,-0.43
2023-03-17T03:34:11.114Z,-0.41
2023-03-17T03:36:40.415Z,-0.36
2023-03-17T03:39:08.807Z,-0.32
2023-03-17T03:41:35.708Z,-0.34
2023-03-17T03:44:02.893Z,-0.36
2023-03-17T03:46:30.041Z,-0.40
2023-03-17T03:48:57.227Z,-0.38
2023-03-17T03:51:24.048Z,-0.31
2023-03-17T03:53:51.164Z,-0.35
2023-03-17T03:56:18.013Z,-0.29
2023-03-17T03:58:45.491Z,-0.30
2023-03-17T04:01:12.672Z,-0.31
2023-03-17T04:03:39.933Z,-0.28
2023-03-17T04:06:07.184Z,-0.23
2023-03-17T04:08:37.638Z,-0.24
2023-03-17T04:11:04.590Z,-0.28
2023-03-17T04:13:34.081Z,-0.20
2023-03-17T04:16:01.717Z,-0.11
2023-03-17T04:18:28.972Z,-0.09
2023-03-17T04:20:56.102Z,-0.01
2023-03-17T04:23:23.438Z,0.09
2023-03-17T04:25:50.986Z,0.14
2023-03-17T04:28:20.778Z,0.12
2023-03-17T04:30:47.666Z,0.16
2023-03-17T04:33:14.802Z,0.15
2023-03-17T04:35:41.793Z,0.14
2023-03-17T04:38:10.408Z,0.08
2023-03-17T04:40:37.195Z,0.11
2023-03-17T04:43:04.429Z,0.09
2023-03-17T04:45:31.485Z,0.05
2023-03-17T04:47:58.893Z,0.03
2023-03-17T04:50:26.555Z,-0.08
2023-03-17T04:52:53.896Z,-0.09
2023-03-17T04:55:21.173Z,-0.08
2023-03-17T04:57:48.333Z,-0.14
2023-03-17T05:00:18.542Z,-0.16
2023-03-17T05:02:48.555Z,-0.06
2023-03-17T05:05:15.612Z,-0.07
2023-03-17T05:07:44.891Z,-0.08
2023-03-17T05:10:12.569Z,-0.09
2023-03-17T05:12:39.738Z,-0.11
2023-03-17T05:15:06.904Z,-0.05
2023-03-17T05:17:34.119Z,0.01
2023-03-17T05:20:01.003Z,0.06
2023-03-17T05:22:28.270Z,0.12
2023-03-17T05:24:55.188Z,0.21
2023-03-17T05:27:24.868Z,0.24
2023-03-17T05:29:51.814Z,0.31
2023-03-17T05:32:19.893Z,0.37
2023-03-17T05:34:47.094Z,0.47
2023-03-17T05:37:14.309Z,0.54
2023-03-17T05:39:42.173Z,0.67
2023-03-17T05:42:09.523Z,0.82
2023-03-17T05:44:36.454Z,0.97
2023-03-17T05:47:06.021Z,1.08
2023-03-17T05:49:32.888Z,1.35
2023-03-17T05:52:00.031Z,1.71
2023-03-17T05:54:27.692Z,1.95
2023-03-17T05:56:54.815Z,2.16
2023-03-17T05:59:22.363Z,2.16
2023-03-17T06:01:49.618Z,2.06
2023-03-17T06:04:16.604Z,2.14
2023-03-17T06:06:43.791Z,2.23
2023-03-17T06:09:10.785Z,2.54
2023-03-17T06:11:38.390Z,2.65
2023-03-17T06:14:05.328Z,2.85
2023-03-17T06:16:35.032Z,2.98
2023-03-17T06:19:02.409Z,3.72
2023-03-17T06:21:29.604Z,4.87
2023-03-17T06:23:56.515Z,5.69
2023-03-17T06:26:23.641Z,6.11
2023-03-17T06:28:50.591Z,5.77
2023-03-17T06:31:18.051Z,5.74
2023-03-17T06:33:45.115Z,5.22
2023-03-17T06:36:12.433Z,5.15
2023-03-17T06:38:39.519Z,6.16
2023-03-17T06:41:06.774Z,6.50
2023-03-17T06:43:33.869Z,6.05
2023-03-17T06:46:01.449Z,6.11
2023-03-17T06:48:28.760Z,5.99
2023-03-17T06:50:56.319Z,6.31
2023-03-17T06:53:23.331Z,7.64
2023-03-17T06:55:50.523Z,9.25
2023-03-17T06:58:17.537Z,11.17
2023-03-17T07:00:45.569Z,12.31
2023-03-17T07:03:12.824Z,12.76
2023-03-17T07:05:40.338Z,13.26
2023-03-17T07:08:07.507Z,13.73
2023-03-17T07:10:36.756Z,13.43
2023-03-17T07:13:05.262Z,13.08
2023-03-17T07:15:35.022Z,13.90
2023-03-17T07:18:02.467Z,13.16
2023-03-17T07:20:30.097Z,13.85
2023-03-17T07:22:57.339Z,12.23
2023-03-17T07:25:24.757Z,12.19
2023-03-17T07:27:52.066Z,12.25
2023-03-17T07:30:19.602Z,13.24
2023-03-17T07:32:46.977Z,13.32
2023-03-17T07:35:15.576Z,13.20
2023-03-17T07:37:44.976Z,12.64
2023-03-17T07:40:12.554Z,13.73
2023-03-17T07:42:39.509Z,14.79
2023-03-17T07:45:08.062Z,14.43
2023-03-17T07:47:34.986Z,14.59
2023-03-17T07:50:02.406Z,14.00
2023-03-17T07:52:29.292Z,13.81
2023-03-17T07:54:58.284Z,13.43
2023-03-17T07:57:25.726Z,12.72
2023-03-17T07:59:53.069Z,12.86
2023-03-17T08:02:20.068Z,13.15
2023-03-17T08:04:47.357Z,13.55
2023-03-17T08:07:15.663Z,13.66
2023-03-17T08:09:42.989Z,13.75
2023-03-17T08:12:10.185Z,12.54
2023-03-17T08:20:12.477Z,13.08
2023-03-17T08:22:40.239Z,11.97
2023-03-17T08:25:07.359Z,11.44
2023-03-17T08:27:34.652Z,11.37
2023-03-17T08:30:02.679Z,11.61
2023-03-17T08:32:29.963Z,10.96
2023-03-17T08:34:56.951Z,10.68
2023-03-17T08:37:24.777Z,11.05
2023-03-17T08:39:51.771Z,11.09
2023-03-17T08:42:19.079Z,11.09
2023-03-17T08:44:45.988Z,11.22
2023-03-17T08:47:13.246Z,10.77
2023-03-17T08:49:40.199Z,11.11
2023-03-17T08:52:08.122Z,10.36
2023-03-17T08:54:35.911Z,10.51
2023-03-17T08:57:04.130Z,10.81
2023-03-17T08:59:31.620Z,10.72
2023-03-17T09:01:59.532Z,10.51
2023-03-17T09:04:26.693Z,10.15
2023-03-17T09:07:03.291Z,10.07
2023-03-17T09:09:31.341Z,10.18
2023-03-17T09:11:58.752Z,9.95
2023-03-17T09:14:25.661Z,9.92
2023-03-17T09:16:53.175Z,9.92
2023-03-17T09:19:20.397Z,9.90
2023-03-17T09:21:47.978Z,9.96
2023-03-17T09:24:14.907Z,9.85
2023-03-17T09:26:42.214Z,10.01
2023-03-17T09:29:09.183Z,9.89
2023-03-17T09:31:36.898Z,9.73
2023-03-17T09:34:05.187Z,9.93
2023-03-17T09:36:33.284Z,10.49
2023-03-17T09:39:01.070Z,10.26
2023-03-17T09:41:43.645Z,10.26
2023-03-17T09:44:29.115Z,10.16
2023-03-17T09:47:08.821Z,10.05
2023-03-17T09:49:55.938Z,9.98
2023-03-17T09:52:27.297Z,9.93
2023-03-17T09:54:54.248Z,9.72
2023-03-17T09:57:25.232Z,10.10
2023-03-17T10:00:01.389Z,10.27
2023-03-17T10:02:32.935Z,10.06
2023-03-17T10:05:07.210Z,9.86
2023-03-17T10:07:42.237Z,9.82
2023-03-17T10:10:14.897Z,10.09
2023-03-17T10:12:49.550Z,10.23
2023-03-17T10:15:21.415Z,10.15
2023-03-17T10:17:52.450Z,10.38
2023-03-17T10:20:28.887Z,10.69
2023-03-17T10:22:58.271Z,10.53
2023-03-17T10:25:29.229Z,10.78
2023-03-17T10:27:59.882Z,10.66
2023-03-17T10:30:27.489Z,11.10
2023-03-17T10:32:58.886Z,11.25
2023-03-17T10:35:25.918Z,11.13
2023-03-17T10:38:07.901Z,11.09
2023-03-17T10:40:36.176Z,10.88
2023-03-17T10:43:07.900Z,11.20
2023-03-17T10:45:37.778Z,11.23
2023-03-17T10:48:10.740Z,10.93
2023-03-17T10:50:39.708Z,11.19
2023-03-17T10:53:08.259Z,11.68
2023-03-17T10:55:35.362Z,11.52
2023-03-17T10:58:02.528Z,11.45
2023-03-17T11:00:35.419Z,11.23
2023-03-17T11:03:09.635Z,11.22
2023-03-17T11:05:38.962Z,11.52
2023-03-17T11:08:15.250Z,11.41
2023-03-17T11:10:42.589Z,11.32
2023-03-17T11:13:10.663Z,11.37
2023-03-17T11:15:46.329Z,11.51
2023-03-17T11:18:26.858Z,11.54
2023-03-17T11:20:56.898Z,11.37
2023-03-17T11:23:27.206Z,11.48
2023-03-17T11:26:18.328Z,11.83
2023-03-17T11:29:17.306Z,11.46
2023-03-17T11:35:51.901Z,11.88
2023-03-17T11:38:31.967Z,11.78
2023-03-17T11:40:59.410Z,11.78
2023-03-17T11:43:29.216Z,11.51
2023-03-17T11:46:14.992Z,11.71
2023-03-17T11:52:59.419Z,11.79
2023-03-17T11:55:36.354Z,11.86
2023-03-17T11:58:10.671Z,11.72
2023-03-17T12:00:43.815Z,11.61
2023-03-17T12:03:30.133Z,11.92
2023-03-17T12:05:59.946Z,12.19
2023-03-17T12:08:36.177Z,11.93
2023-03-17T12:11:07.163Z,11.70
2023-03-17T12:13:41.737Z,11.85
2023-03-17T12:16:29.499Z,11.92
2023-03-17T12:18:58.085Z,12.17
2023-03-17T12:21:36.824Z,11.99
2023-03-17T12:24:22.828Z,11.96
2023-03-17T12:26:58.455Z,11.63
2023-03-17T12:29:34.994Z,11.70
2023-03-17T12:32:05.649Z,11.78
2023-03-17T12:34:59.696Z,11.87
2023-03-17T12:37:30.227Z,12.20
2023-03-17T12:40:02.900Z,12.07
2023-03-17T12:42:38.869Z,12.17
2023-03-17T12:45:26.476Z,12.13
2023-03-17T12:48:18.538Z,12.09
2023-03-17T12:51:06.221Z,11.93
2023-03-17T12:53:34.419Z,12.00
2023-03-17T12:56:10.260Z,11.99
2023-03-17T12:58:37.123Z,12.16
2023-03-17T13:01:04.301Z,12.11
2023-03-17T13:03:37.255Z,11.91
2023-03-17T13:06:16.611Z,11.98
2023-03-17T13:08:43.727Z,12.02
2023-03-17T13:11:27.267Z,11.96
2023-03-17T13:13:54.587Z,12.06
2023-03-17T13:16:44.834Z,11.97
2023-03-17T13:19:24.885Z,12.03
2023-03-17T13:22:04.471Z,11.98
2023-03-17T13:24:40.660Z,12.16
2023-03-17T13:27:12.526Z,12.11
2023-03-17T13:29:42.011Z,12.19
2023-03-17T13:32:17.812Z,12.25
2023-03-17T13:34:48.991Z,12.50
2023-03-17T13:37:28.695Z,12.63
2023-03-17T13:40:01.118Z,12.24
2023-03-17T13:42:46.747Z,12.43
2023-03-17T13:45:23.349Z,12.33
2023-03-17T13:47:52.486Z,12.42
2023-03-17T13:50:23.871Z,12.47
2023-03-17T13:52:54.012Z,12.37
2023-03-17T13:55:23.995Z,12.43
2023-03-17T13:58:11.296Z,12.18
2023-03-17T14:00:46.943Z,12.36
2023-03-17T14:03:20.415Z,12.47
2023-03-17T14:05:48.234Z,12.36
2023-03-17T14:08:20.272Z,12.34
2023-03-17T14:10:57.273Z,12.44
2023-03-17T14:13:26.151Z,12.32
2023-03-17T14:15:56.958Z,12.47
2023-03-17T14:18:38.414Z,12.22
2023-03-17T14:21:09.958Z,12.29
2023-03-17T14:23:38.615Z,12.23
2023-03-17T14:26:13.108Z,12.23
2023-03-17T14:28:40.646Z,12.29
2023-03-17T14:31:08.159Z,12.26
2023-03-17T14:33:40.057Z,12.23
2023-03-17T14:36:08.628Z,12.25
2023-03-17T14:38:37.351Z,12.21
2023-03-17T14:41:06.992Z,12.21
2023-03-17T14:43:36.198Z,12.19
2023-03-17T14:46:04.841Z,12.36
2023-03-17T14:48:40.404Z,12.35
2023-03-17T14:51:09.567Z,12.30
2023-03-17T14:53:40.985Z,12.32
2023-03-17T14:56:07.918Z,12.33
2023-03-17T14:58:45.197Z,12.22
2023-03-17T15:01:15.610Z,12.16
2023-03-17T15:03:54.033Z,11.99
2023-03-17T15:06:25.740Z,12.01
2023-03-17T15:08:53.768Z,11.88
2023-03-17T15:11:28.086Z,11.87
2023-03-17T15:13:57.195Z,11.83
2023-03-17T15:16:27.260Z,11.84
2023-03-17T15:19:01.669Z,11.85
2023-03-17T15:21:37.103Z,11.74
2023-03-17T15:24:05.299Z,11.69
2023-03-17T15:26:32.386Z,11.64
2023-03-17T15:29:00.596Z,11.56
2023-03-17T15:31:30.185Z,11.53
2023-03-17T15:33:57.973Z,11.55
2023-03-17T15:36:32.821Z,11.51
2023-03-17T15:39:02.016Z,11.52
2023-03-17T15:41:28.986Z,11.46
2023-03-17T15:43:56.870Z,11.38
2023-03-17T15:46:27.604Z,11.32
2023-03-17T15:48:55.058Z,11.26
2023-03-17T15:51:22.533Z,11.21
2023-03-17T15:53:49.753Z,11.14
2023-03-17T15:56:19.156Z,11.10
2023-03-17T15:58:48.192Z,11.07
2023-03-17T16:01:16.542Z,11.01
2023-03-17T16:03:47.436Z,10.97
2023-03-17T16:06:16.387Z,10.89
2023-03-17T16:08:43.669Z,10.81
2023-03-17T16:11:17.900Z,10.79
2023-03-17T16:13:47.852Z,10.73
2023-03-17T16:16:21.608Z,10.68
2023-03-17T16:18:50.387Z,10.62
2023-03-17T16:21:17.883Z,10.59
2023-03-17T16:23:45.863Z,10.55
2023-03-17T16:26:16.197Z,10.48
2023-03-17T16:28:47.864Z,10.44
2023-03-17T16:31:19.974Z,10.35
2023-03-17T16:33:48.393Z,10.30
2023-03-17T16:36:17.461Z,10.23
2023-03-17T16:38:45.217Z,10.18
2023-03-17T16:41:17.433Z,10.09
2023-03-17T16:43:45.896Z,10.08
2023-03-17T16:46:13.225Z,10.01
2023-03-17T16:48:40.799Z,9.93
2023-03-17T16:51:07.975Z,9.88
2023-03-17T16:53:35.475Z,9.88
2023-03-17T16:56:02.907Z,9.89
2023-03-17T16:58:32.374Z,9.88
2023-03-17T17:01:01.341Z,9.78
2023-03-17T17:03:29.984Z,9.73
2023-03-17T17:05:57.581Z,9.71
2023-03-17T17:08:25.313Z,9.67
2023-03-17T17:10:54.315Z,9.59
2023-03-17T17:13:21.887Z,9.54
2023-03-17T17:15:52.941Z,9.50
2023-03-17T17:18:30.980Z,9.41
2023-03-17T17:20:58.494Z,9.41
2023-03-17T17:23:26.604Z,9.34
2023-03-17T17:25:54.378Z,9.28
2023-03-17T17:28:23.516Z,9.23
2023-03-17T17:30:51.560Z,9.25
2023-03-17T17:33:20.892Z,9.17
2023-03-17T17:35:48.884Z,9.22
2023-03-17T17:38:26.606Z,9.17
2023-03-17T17:40:54.917Z,9.16
2023-03-17T17:43:25.465Z,9.13
2023-03-17T17:45:53.933Z,9.06
2023-03-17T17:48:23.183Z,9.03
2023-03-17T17:50:51.247Z,8.98
2023-03-17T17:53:19.477Z,8.92
2023-03-17T17:55:48.116Z,8.91
2023-03-17T17:58:17.191Z,8.90
2023-03-17T18:00:46.570Z,8.95
2023-03-17T18:03:16.687Z,8.87
2023-03-17T18:05:44.750Z,8.87
2023-03-17T18:08:13.999Z,8.85
2023-03-17T18:10:41.893Z,8.74
2023-03-17T18:13:12.129Z,8.66
2023-03-17T18:15:39.950Z,8.62
2023-03-17T18:18:08.214Z,8.69
2023-03-17T18:20:36.000Z,8.65
2023-03-17T18:23:03.946Z,8.66
2023-03-17T18:25:31.765Z,8.62
2023-03-17T18:28:01.909Z,8.56
2023-03-17T18:30:31.679Z,8.55
2023-03-17T18:33:03.672Z,8.53
2023-03-17T18:35:35.181Z,8.52
2023-03-17T18:38:03.484Z,8.44
2023-03-17T18:40:32.368Z,8.35
2023-03-17T18:43:00.546Z,8.33
2023-03-17T18:45:28.338Z,8.29
2023-03-17T18:47:56.279Z,8.29
2023-03-17T18:50:24.244Z,8.31
2023-03-17T18:52:53.963Z,8.27
2023-03-17T18:55:22.325Z,8.27
2023-03-17T18:57:51.972Z,8.27
2023-03-17T19:00:21.282Z,8.25
2023-03-17T19:02:49.284Z,8.32
2023-03-17T19:05:17.157Z,8.27
2023-03-17T19:07:45.502Z,8.20
2023-03-17T19:10:14.650Z,8.13
2023-03-17T19:12:42.816Z,8.11
2023-03-17T19:15:13.293Z,8.13
2023-03-17T19:17:41.628Z,8.10
2023-03-17T19:20:15.612Z,8.06
2023-03-17T19:22:51.095Z,7.99
2023-03-17T19:25:20.249Z,8.04
2023-03-17T19:27:48.955Z,7.95
2023-03-17T19:30:19.456Z,7.95
2023-03-17T19:32:49.333Z,7.83
2023-03-17T19:35:17.181Z,7.82
2023-03-17T19:37:45.485Z,7.82
2023-03-17T19:40:15.504Z,7.76
2023-03-17T19:42:44.927Z,7.67
2023-03-17T19:45:13.913Z,7.68
2023-03-17T19:47:42.893Z,7.63
2023-03-17T19:50:11.132Z,7.56
2023-03-17T19:52:39.725Z,7.56
2023-03-17T19:55:14.208Z,7.56
2023-03-17T19:57:42.686Z,7.58
2023-03-17T20:00:12.090Z,7.57
2023-03-17T20:02:42.745Z,7.50
2023-03-17T20:05:11.481Z,7.44
2023-03-17T20:07:39.438Z,7.43
2023-03-17T20:10:07.722Z,7.47
2023-03-17T20:12:38.716Z,7.49
2023-03-17T20:15:08.341Z,7.42
2023-03-17T20:17:41.504Z,7.34
2023-03-17T20:20:10.733Z,7.32
2023-03-17T20:22:42.177Z,7.29
2023-03-17T20:25:10.987Z,7.26
2023-03-17T20:27:39.468Z,7.19
2023-03-17T20:30:09.045Z,7.22
2023-03-17T20:32:37.115Z,7.16
2023-03-17T20:35:06.803Z,7.21
2023-03-17T20:37:36.481Z,7.20
2023-03-17T20:40:06.154Z,7.16
2023-03-17T20:42:34.594Z,7.14
2023-03-17T20:45:04.173Z,7.13
2023-03-17T20:47:32.605Z,7.15
2023-03-17T20:50:02.811Z,7.07
2023-03-17T20:52:30.849Z,7.09
2023-03-17T20:55:00.465Z,7.06
2023-03-17T20:57:29.438Z,6.98
2023-03-17T20:59:58.502Z,6.99
2023-03-17T21:02:26.699Z,7.00
2023-03-17T21:04:54.823Z,7.02
2023-03-17T21:07:22.887Z,7.04
2023-03-17T21:09:51.624Z,6.96
2023-03-17T21:12:23.234Z,6.90
2023-03-17T21:14:52.282Z,7.00
2023-03-17T21:17:20.937Z,7.00
2023-03-17T21:19:47.921Z,6.95
2023-03-17T21:22:16.279Z,6.95
2023-03-17T21:24:43.249Z,6.84
2023-03-17T21:27:12.641Z,6.85
2023-03-17T21:29:41.009Z,6.92
2023-03-17T21:32:08.684Z,6.90
2023-03-17T21:34:37.221Z,6.90
2023-03-17T21:37:06.068Z,6.88
2023-03-17T21:39:33.125Z,6.83
2023-03-17T21:42:02.017Z,6.81
2023-03-17T21:44:29.427Z,6.78
2023-03-17T21:46:57.034Z,6.77
2023-03-17T21:49:24.879Z,6.75
2023-03-17T21:51:52.160Z,6.74
2023-03-17T21:54:19.455Z,6.69
2023-03-17T21:56:49.986Z,6.67
2023-03-17T21:59:19.040Z,6.64
2023-03-17T22:01:46.304Z,6.57
2023-03-17T22:04:14.280Z,6.55
2023-03-17T22:06:41.657Z,6.51
2023-03-17T22:09:11.002Z,6.47
2023-03-17T22:11:38.303Z,6.43
2023-03-17T22:14:05.204Z,6.38
2023-03-17T22:16:32.565Z,6.39
2023-03-17T22:18:59.674Z,6.35
2023-03-17T22:21:28.868Z,6.27
2023-03-17T22:23:55.754Z,6.31
2023-03-17T22:26:23.089Z,6.30
2023-03-17T22:28:50.407Z,6.21
2023-03-17T22:31:25.022Z,6.21
2023-03-17T22:33:53.358Z,6.27
2023-03-17T22:36:21.137Z,6.22
2023-03-17T22:38:48.399Z,6.23
2023-03-17T22:41:18.564Z,6.21
2023-03-17T22:43:45.970Z,6.12
2023-03-17T22:46:13.862Z,6.06
2023-03-17T22:48:40.897Z,6.03
2023-03-17T22:51:10.502Z,6.04
2023-03-17T22:53:39.654Z,6.06
2023-03-17T22:56:07.941Z,6.02
2023-03-17T22:58:37.207Z,5.98
2023-03-17T23:01:06.565Z,5.93
2023-03-17T23:03:34.208Z,5.88
2023-03-17T23:06:02.507Z,5.86
2023-03-17T23:08:30.228Z,5.88
2023-03-17T23:10:59.567Z,5.84
2023-03-17T23:13:27.722Z,5.85
2023-03-17T23:15:54.885Z,5.83
2023-03-17T23:18:22.495Z,5.74
2023-03-17T23:20:50.338Z,5.78
2023-03-17T23:23:17.551Z,5.75
2023-03-17T23:25:44.941Z,5.73
2023-03-17T23:28:15.609Z,5.67
2023-03-17T23:30:44.022Z,5.69
2023-03-17T23:33:11.049Z,5.70
2023-03-17T23:35:38.581Z,5.67
2023-03-17T23:38:05.866Z,5.58
2023-03-17T23:40:34.482Z,5.61
2023-03-17T23:43:01.983Z,5.58
2023-03-17T23:45:29.377Z,5.59
2023-03-17T23:47:58.535Z,5.60
2023-03-17T23:50:25.931Z,5.57
2023-03-17T23:52:54.199Z,5.59
2023-03-17T23:55:21.362Z,5.56
2023-03-17T23:57:48.232Z,5.55
